createdAt,value
2023-05-12T00:00:25.734Z,17
2023-05-12T00:01:42.775Z,18
2023-05-12T00:02:59.849Z,18
2023-05-12T00:04:17.395Z,18
2023-05-12T00:05:33.739Z,17
2023-05-12T00:06:50.741Z,17
2023-05-12T00:08:07.739Z,17
2023-05-12T00:09:24.783Z,17
2023-05-12T00:10:41.784Z,17
2023-05-12T00:11:58.777Z,16
2023-05-12T00:13:15.786Z,16
2023-05-12T00:14:32.786Z,16
2023-05-12T00:15:49.748Z,16
2023-05-12T00:17:06.847Z,16
2023-05-12T00:18:23.779Z,17
2023-05-12T00:19:40.770Z,16
2023-05-12T00:20:57.811Z,16
2023-05-12T00:22:14.869Z,17
2023-05-12T00:23:31.839Z,17
2023-05-12T00:24:48.776Z,16
2023-05-12T00:26:05.779Z,16
2023-05-12T00:27:22.837Z,14
2023-05-12T00:28:39.767Z,14
2023-05-12T00:29:56.781Z,14
2023-05-12T00:31:13.828Z,14
2023-05-12T00:32:30.931Z,16
2023-05-12T00:33:47.789Z,14
2023-05-12T00:35:05.389Z,14
2023-05-12T00:36:22.792Z,14
2023-05-12T00:37:39.845Z,14
2023-05-12T00:38:56.786Z,16
2023-05-12T00:40:13.800Z,16
2023-05-12T00:41:30.820Z,14
2023-05-12T00:42:47.902Z,16
2023-05-12T00:44:04.796Z,16
2023-05-12T00:45:21.870Z,16
2023-05-12T00:46:38.818Z,16
2023-05-12T00:47:55.873Z,14
2023-05-12T00:49:12.841Z,14
2023-05-12T00:50:29.887Z,14
2023-05-12T00:51:46.879Z,16
2023-05-12T00:53:03.836Z,14
2023-05-12T00:54:20.908Z,17
2023-05-12T00:55:37.893Z,14
2023-05-12T00:56:54.858Z,14
2023-05-12T00:58:11.859Z,14
2023-05-12T00:59:28.832Z,14
2023-05-12T01:00:45.851Z,14
2023-05-12T01:02:02.948Z,14
2023-05-12T01:03:19.976Z,16
2023-05-12T01:04:36.867Z,14
2023-05-12T01:05:53.904Z,14
2023-05-12T01:07:10.830Z,14
2023-05-12T01:08:27.934Z,13
2023-05-12T01:09:44.846Z,14
2023-05-12T01:11:01.906Z,14
2023-05-12T01:12:19.179Z,14
2023-05-12T01:13:35.857Z,14
2023-05-12T01:14:52.850Z,13
2023-05-12T01:16:09.878Z,13
2023-05-12T01:17:27.310Z,15
2023-05-12T01:18:44.924Z,13
2023-05-12T01:20:01.889Z,14
2023-05-12T01:21:18.868Z,14
2023-05-12T01:22:36.659Z,13
2023-05-12T01:23:54.054Z,12
2023-05-12T01:25:10.886Z,12
2023-05-12T01:26:27.858Z,12
2023-05-12T01:27:44.956Z,12
2023-05-12T01:29:01.902Z,12
2023-05-12T01:30:19.368Z,12
2023-05-12T01:31:35.962Z,11
2023-05-12T01:32:52.911Z,12
2023-05-12T01:34:09.911Z,11
2023-05-12T01:35:26.924Z,11
2023-05-12T01:36:43.874Z,11
2023-05-12T01:38:00.913Z,11
2023-05-12T01:39:17.903Z,12
2023-05-12T01:40:34.919Z,12
2023-05-12T01:41:51.890Z,12
2023-05-12T01:43:08.922Z,12
2023-05-12T01:44:25.888Z,12
2023-05-12T01:45:42.957Z,12
2023-05-12T01:46:59.894Z,12
2023-05-12T01:48:16.890Z,12
2023-05-12T01:49:33.948Z,12
2023-05-12T01:50:50.934Z,12
2023-05-12T01:52:07.922Z,12
2023-05-12T01:53:24.932Z,12
2023-05-12T01:54:41.933Z,12
2023-05-12T01:55:58.922Z,12
2023-05-12T01:57:15.931Z,12
2023-05-12T01:58:32.917Z,11
2023-05-12T01:59:49.952Z,12
2023-05-12T02:01:06.904Z,12
2023-05-12T02:02:23.954Z,11
2023-05-12T02:03:40.962Z,11
2023-05-12T02:04:58.026Z,11
2023-05-12T02:06:15.013Z,11
2023-05-12T02:07:31.946Z,12
2023-05-12T02:08:48.973Z,12
2023-05-12T02:10:05.963Z,12
2023-05-12T02:11:22.970Z,12
2023-05-12T02:12:39.950Z,11
2023-05-12T02:13:56.944Z,12
2023-05-12T02:15:14.029Z,12
2023-05-12T02:16:30.969Z,12
2023-05-12T02:17:47.993Z,12
2023-05-12T02:19:05.045Z,12
2023-05-12T02:20:22.191Z,12
2023-05-12T02:21:38.991Z,11
2023-05-12T02:22:55.978Z,10
2023-05-12T02:24:14.876Z,10
2023-05-12T02:25:30.033Z,11
2023-05-12T02:26:47.002Z,11
2023-05-12T02:28:03.997Z,12
2023-05-12T02:29:21.018Z,11
2023-05-12T02:30:38.075Z,11
2023-05-12T02:31:54.992Z,11
2023-05-12T02:33:11.952Z,11
2023-05-12T02:34:29.041Z,11
2023-05-12T02:35:46.116Z,11
2023-05-12T02:37:02.988Z,13
2023-05-12T02:38:20.048Z,12
2023-05-12T02:39:37.008Z,11
2023-05-12T02:40:54.002Z,11
2023-05-12T02:42:10.992Z,11
2023-05-12T02:43:27.978Z,11
2023-05-12T02:44:45.121Z,11
2023-05-12T02:46:02.068Z,10
2023-05-12T02:47:18.990Z,10
2023-05-12T02:48:35.988Z,10
2023-05-12T02:49:53.013Z,10
2023-05-12T02:51:10.564Z,10
2023-05-12T02:52:28.073Z,10
2023-05-12T02:53:45.025Z,10
2023-05-12T02:55:02.039Z,10
2023-05-12T02:56:18.982Z,10
2023-05-12T02:57:36.034Z,11
2023-05-12T02:58:53.038Z,10
2023-05-12T03:00:10.035Z,10
2023-05-12T03:01:27.036Z,10
2023-05-12T03:02:44.123Z,11
2023-05-12T03:04:01.059Z,10
2023-05-12T03:05:18.096Z,10
2023-05-12T03:06:35.103Z,11
2023-05-12T03:07:52.071Z,11
2023-05-12T03:09:09.007Z,11
2023-05-12T03:10:26.033Z,11
2023-05-12T03:11:43.658Z,10
2023-05-12T03:13:00.033Z,11
2023-05-12T03:14:17.034Z,11
2023-05-12T03:15:34.042Z,10
2023-05-12T03:16:51.107Z,11
2023-05-12T03:18:08.085Z,11
2023-05-12T03:19:25.022Z,10
2023-05-12T03:20:42.040Z,11
2023-05-12T03:21:59.116Z,11
2023-05-12T03:23:16.039Z,11
2023-05-12T03:24:33.060Z,11
2023-05-12T03:25:50.049Z,11
2023-05-12T03:27:07.076Z,11
2023-05-12T03:28:24.050Z,11
2023-05-12T03:29:41.047Z,12
2023-05-12T03:30:58.122Z,12
2023-05-12T03:32:15.106Z,12
2023-05-12T03:33:32.074Z,12
2023-05-12T03:34:49.056Z,12
2023-05-12T03:36:06.056Z,13
2023-05-12T03:37:23.129Z,12
2023-05-12T03:38:40.105Z,12
2023-05-12T03:39:57.060Z,12
2023-05-12T03:41:14.066Z,13
2023-05-12T03:42:31.062Z,12
2023-05-12T03:43:48.135Z,12
2023-05-12T03:45:05.079Z,12
2023-05-12T03:46:22.192Z,12
2023-05-12T03:47:39.154Z,12
2023-05-12T03:48:56.098Z,12
2023-05-12T03:50:13.106Z,13
2023-05-12T03:51:30.069Z,13
2023-05-12T03:52:47.183Z,13
2023-05-12T03:54:04.105Z,13
2023-05-12T03:55:21.091Z,13
2023-05-12T03:56:38.096Z,14
2023-05-12T03:57:55.125Z,12
2023-05-12T03:59:12.125Z,13
2023-05-12T04:00:29.096Z,12
2023-05-12T04:01:46.171Z,13
2023-05-12T04:03:03.182Z,13
2023-05-12T04:04:20.142Z,13
2023-05-12T04:05:37.104Z,14
2023-05-12T04:06:54.108Z,14
2023-05-12T04:08:11.181Z,17
2023-05-12T04:09:28.150Z,16
2023-05-12T04:10:45.106Z,14
2023-05-12T04:12:02.119Z,17
2023-05-12T04:13:19.165Z,17
2023-05-12T04:14:42.642Z,16
2023-05-12T04:15:53.707Z,17
2023-05-12T04:17:10.117Z,16
2023-05-12T04:18:27.234Z,16
2023-05-12T04:19:44.188Z,16
2023-05-12T04:21:01.250Z,16
2023-05-12T04:22:18.748Z,16
2023-05-12T04:23:36.156Z,16
2023-05-12T04:24:53.766Z,16
2023-05-12T04:26:11.164Z,16
2023-05-12T04:27:28.173Z,17
2023-05-12T04:28:45.150Z,16
2023-05-12T04:30:02.189Z,16
2023-05-12T04:31:19.250Z,16
2023-05-12T04:32:36.305Z,16
2023-05-12T04:33:53.168Z,14
2023-05-12T04:35:11.264Z,16
2023-05-12T04:36:28.755Z,16
2023-05-12T04:37:46.240Z,16
2023-05-12T04:39:03.181Z,16
2023-05-12T04:40:20.362Z,14
2023-05-12T04:41:37.324Z,16
2023-05-12T04:42:54.192Z,15
2023-05-12T04:44:11.200Z,14
2023-05-12T04:45:28.154Z,14
2023-05-12T04:46:45.167Z,14
2023-05-12T04:48:02.255Z,16
2023-05-12T04:49:19.192Z,17
2023-05-12T04:50:36.213Z,16
2023-05-12T04:51:53.240Z,16
2023-05-12T04:53:11.378Z,16
2023-05-12T04:54:27.193Z,16
2023-05-12T04:55:44.206Z,16
2023-05-12T04:57:01.205Z,17
2023-05-12T04:58:18.181Z,16
2023-05-12T04:59:35.185Z,16
2023-05-12T05:00:52.232Z,17
2023-05-12T05:02:09.288Z,18
2023-05-12T05:03:26.342Z,19
2023-05-12T05:04:43.196Z,18
2023-05-12T05:06:00.189Z,19
2023-05-12T05:07:17.210Z,18
2023-05-12T05:08:34.211Z,17
2023-05-12T05:09:51.830Z,17
2023-05-12T05:11:08.230Z,18
2023-05-12T05:12:25.263Z,18
2023-05-12T05:13:42.202Z,18
2023-05-12T05:14:59.283Z,17
2023-05-12T05:16:16.268Z,17
2023-05-12T05:17:33.240Z,17
2023-05-12T05:18:50.274Z,18
2023-05-12T05:20:11.546Z,18
2023-05-12T05:21:24.246Z,19
2023-05-12T05:22:41.223Z,19
2023-05-12T05:23:58.249Z,18
2023-05-12T05:25:15.307Z,20
2023-05-12T05:26:32.431Z,19
2023-05-12T05:27:49.313Z,20
2023-05-12T05:29:06.333Z,20
2023-05-12T05:30:23.227Z,21
2023-05-12T05:31:40.276Z,20
2023-05-12T05:32:57.301Z,20
2023-05-12T05:34:14.353Z,21
2023-05-12T05:35:31.229Z,20
2023-05-12T05:36:48.241Z,20
2023-05-12T05:38:05.261Z,20
2023-05-12T05:39:22.369Z,20
2023-05-12T05:40:51.963Z,20
2023-05-12T05:41:56.276Z,20
2023-05-12T05:43:13.303Z,21
2023-05-12T05:44:30.277Z,21
2023-05-12T05:45:47.244Z,21
2023-05-12T05:47:04.325Z,22
2023-05-12T05:48:21.284Z,21
2023-05-12T05:49:38.353Z,23
2023-05-12T05:50:55.290Z,21
2023-05-12T05:52:12.277Z,21
2023-05-12T05:53:29.306Z,20
2023-05-12T05:54:46.282Z,21
2023-05-12T05:56:03.276Z,20
2023-05-12T05:57:20.307Z,20
2023-05-12T05:58:37.307Z,23
2023-05-12T05:59:54.260Z,21
2023-05-12T06:01:11.266Z,21
2023-05-12T06:02:28.365Z,23
2023-05-12T06:03:45.356Z,24
2023-05-12T06:05:02.293Z,25
2023-05-12T06:06:19.292Z,25
2023-05-12T06:07:36.299Z,23
2023-05-12T06:08:53.344Z,23
2023-05-12T06:10:10.291Z,23
2023-05-12T06:11:27.383Z,23
2023-05-12T06:12:44.329Z,24
2023-05-12T06:14:01.355Z,25
2023-05-12T06:15:18.536Z,27
2023-05-12T06:16:35.315Z,26
2023-05-12T06:17:52.324Z,27
2023-05-12T06:19:09.445Z,26
2023-05-12T06:20:26.364Z,26
2023-05-12T06:21:43.294Z,25
2023-05-12T06:23:00.325Z,27
2023-05-12T06:24:17.355Z,26
2023-05-12T06:25:34.390Z,26
2023-05-12T06:26:51.347Z,28
2023-05-12T06:28:08.333Z,29
2023-05-12T06:29:25.365Z,32
2023-05-12T06:30:42.369Z,32
2023-05-12T06:31:59.416Z,34
2023-05-12T06:33:16.366Z,35
2023-05-12T06:34:33.322Z,37
2023-05-12T06:35:50.362Z,39
2023-05-12T06:37:07.404Z,41
2023-05-12T06:38:24.330Z,43
2023-05-12T06:39:41.327Z,43
2023-05-12T06:40:58.403Z,43
2023-05-12T06:42:16.727Z,46
2023-05-12T06:43:33.388Z,44
2023-05-12T06:44:50.357Z,46
2023-05-12T06:46:07.361Z,48
2023-05-12T06:47:24.422Z,50
2023-05-12T06:48:41.387Z,53
2023-05-12T06:49:58.374Z,54
2023-05-12T06:51:15.386Z,52
2023-05-12T06:52:32.349Z,52
2023-05-12T06:53:49.383Z,50
2023-05-12T06:55:06.379Z,51
2023-05-12T06:56:23.416Z,51
2023-05-12T06:57:40.414Z,55
2023-05-12T06:58:57.424Z,54
2023-05-12T07:00:14.389Z,49
2023-05-12T07:01:31.383Z,50
2023-05-12T07:02:48.452Z,49
2023-05-12T07:04:05.498Z,51
2023-05-12T07:05:22.856Z,52
2023-05-12T07:06:39.395Z,50
2023-05-12T07:07:56.464Z,44
2023-05-12T07:09:13.421Z,44
2023-05-12T07:10:30.482Z,43
2023-05-12T07:11:47.383Z,42
2023-05-12T07:13:04.619Z,46
2023-05-12T07:14:21.392Z,46
2023-05-12T07:15:38.479Z,47
2023-05-12T07:16:55.712Z,44
2023-05-12T07:18:12.553Z,44
2023-05-12T07:19:29.395Z,44
2023-05-12T07:20:46.467Z,47
2023-05-12T07:22:03.437Z,46
2023-05-12T07:23:20.462Z,48
2023-05-12T07:24:37.546Z,48
2023-05-12T07:25:54.442Z,50
2023-05-12T07:27:11.438Z,51
2023-05-12T07:28:28.583Z,49
2023-05-12T07:29:45.938Z,48
2023-05-12T07:31:03.524Z,48
2023-05-12T07:32:20.466Z,47
2023-05-12T07:33:37.436Z,46
2023-05-12T07:34:54.446Z,47
2023-05-12T07:36:11.438Z,48
2023-05-12T07:37:28.421Z,47
2023-05-12T07:38:45.444Z,46
2023-05-12T07:40:02.491Z,48
2023-05-12T07:41:19.437Z,50
2023-05-12T07:42:36.500Z,50
2023-05-12T07:43:53.589Z,54
2023-05-12T07:45:10.483Z,55
2023-05-12T07:46:27.481Z,54
2023-05-12T07:47:44.522Z,54
2023-05-12T07:49:01.524Z,50
2023-05-12T07:50:18.578Z,50
2023-05-12T07:51:35.463Z,51
2023-05-12T07:52:52.526Z,52
2023-05-12T07:54:09.495Z,51
2023-05-12T07:55:26.458Z,51
2023-05-12T07:56:43.505Z,52
2023-05-12T07:58:00.903Z,52
2023-05-12T07:59:17.770Z,55
2023-05-12T08:00:34.488Z,55
2023-05-12T08:01:51.530Z,55
2023-05-12T08:03:08.571Z,55
2023-05-12T08:04:25.589Z,54
2023-05-12T08:05:42.508Z,50
2023-05-12T08:06:59.484Z,49
2023-05-12T08:08:16.542Z,51
2023-05-12T08:09:33.641Z,52
2023-05-12T08:10:50.536Z,51
2023-05-12T08:12:07.525Z,54
2023-05-12T08:13:24.492Z,55
2023-05-12T08:14:41.531Z,55
2023-05-12T08:15:58.587Z,57
2023-05-12T08:17:16.751Z,58
2023-05-12T08:18:33.571Z,60
2023-05-12T08:19:50.544Z,59
2023-05-12T08:21:09.847Z,57
2023-05-12T08:22:24.522Z,59
2023-05-12T08:23:41.530Z,57
2023-05-12T08:24:58.650Z,59
2023-05-12T08:26:15.512Z,57
2023-05-12T08:27:32.506Z,60
2023-05-12T08:28:52.340Z,60
2023-05-12T08:30:06.771Z,62
2023-05-12T08:31:23.554Z,60
2023-05-12T08:32:40.658Z,58
2023-05-12T08:34:08.878Z,57
2023-05-12T08:35:14.658Z,56
2023-05-12T08:36:31.535Z,56
2023-05-12T08:37:48.563Z,56
2023-05-12T08:39:05.555Z,58
2023-05-12T08:40:22.594Z,58
2023-05-12T08:41:39.648Z,58
2023-05-12T08:42:56.549Z,58
2023-05-12T08:44:13.587Z,57
2023-05-12T08:45:31.105Z,57
2023-05-12T08:46:47.636Z,58
2023-05-12T08:48:04.765Z,56
2023-05-12T08:49:21.608Z,56
2023-05-12T08:50:38.592Z,58
2023-05-12T08:51:57.976Z,57
2023-05-12T08:53:12.581Z,58
2023-05-12T08:54:29.658Z,58
2023-05-12T08:55:58.628Z,56
2023-05-12T08:58:27.727Z,56
2023-05-12T08:59:37.696Z,60
2023-05-12T09:00:54.854Z,55
2023-05-12T09:02:11.619Z,55
2023-05-12T09:03:28.620Z,56
2023-05-12T09:04:45.644Z,58
2023-05-12T09:06:02.613Z,58
2023-05-12T09:07:19.945Z,60
2023-05-12T09:08:37.593Z,60
2023-05-12T09:09:54.591Z,59
2023-05-12T09:11:11.591Z,59
2023-05-12T09:12:28.659Z,58
2023-05-12T09:13:45.609Z,57
2023-05-12T09:15:02.623Z,57
2023-05-12T09:16:19.816Z,58
2023-05-12T09:17:36.655Z,59
2023-05-12T09:18:53.644Z,59
2023-05-12T09:20:17.834Z,59
2023-05-12T09:21:27.604Z,58
2023-05-12T09:22:44.675Z,56
2023-05-12T09:24:01.635Z,56
2023-05-12T09:25:18.942Z,58
2023-05-12T09:26:35.654Z,59
2023-05-12T09:27:52.667Z,57
2023-05-12T09:29:12.049Z,56
2023-05-12T09:30:26.774Z,53
2023-05-12T09:31:43.812Z,54
2023-05-12T09:33:00.688Z,54
2023-05-12T09:34:17.643Z,56
2023-05-12T09:35:34.682Z,56
2023-05-12T09:36:51.645Z,54
2023-05-12T09:38:08.909Z,52
2023-05-12T09:39:25.634Z,52
2023-05-12T09:40:42.751Z,51
2023-05-12T09:41:59.769Z,51
2023-05-12T09:43:16.677Z,56
2023-05-12T09:44:33.729Z,56
2023-05-12T09:45:50.136Z,57
2023-05-12T09:47:07.768Z,60
2023-05-12T09:48:26.879Z,63
2023-05-12T09:49:41.753Z,59
2023-05-12T09:50:58.715Z,58
2023-05-12T09:52:15.804Z,56
2023-05-12T09:53:32.656Z,55
2023-05-12T09:54:49.657Z,56
2023-05-12T09:56:06.691Z,56
2023-05-12T09:57:23.759Z,56
2023-05-12T09:58:40.862Z,54
2023-05-12T09:59:57.683Z,54
2023-05-12T10:01:22.434Z,55
2023-05-12T10:02:31.921Z,52
2023-05-12T10:03:48.675Z,54
2023-05-12T10:05:05.803Z,54
2023-05-12T10:06:22.731Z,55
2023-05-12T10:07:39.759Z,55
2023-05-12T10:08:56.706Z,57
2023-05-12T10:10:13.782Z,57
2023-05-12T10:11:30.737Z,56
2023-05-12T10:12:47.770Z,52
2023-05-12T10:14:04.741Z,55
2023-05-12T10:15:21.908Z,56
2023-05-12T10:16:38.106Z,59
2023-05-12T10:17:54.230Z,62
2023-05-12T10:19:11.155Z,64
2023-05-12T10:20:27.728Z,65
2023-05-12T10:21:44.860Z,65
2023-05-12T10:23:01.828Z,63
2023-05-12T10:24:18.742Z,60
2023-05-12T10:25:35.833Z,58
2023-05-12T10:26:52.721Z,59
2023-05-12T10:28:09.748Z,60
2023-05-12T10:29:26.772Z,-1
2023-05-12T10:30:43.767Z,62
2023-05-12T10:32:00.776Z,61
2023-05-12T10:33:17.934Z,57
2023-05-12T10:34:34.794Z,57
2023-05-12T10:35:51.818Z,58
2023-05-12T10:37:08.851Z,58
2023-05-12T10:38:25.766Z,57
2023-05-12T10:39:42.752Z,57
2023-05-12T10:40:59.802Z,56
2023-05-12T10:42:16.787Z,58
2023-05-12T10:43:33.759Z,57
2023-05-12T10:44:50.807Z,58
2023-05-12T10:46:07.948Z,58
2023-05-12T10:47:24.800Z,57
2023-05-12T10:48:41.833Z,59
2023-05-12T10:49:58.843Z,56
2023-05-12T10:51:15.781Z,56
2023-05-12T10:52:32.815Z,58
2023-05-12T10:53:52.729Z,56
2023-05-12T10:55:06.802Z,58
2023-05-12T10:56:24.009Z,58
2023-05-12T10:57:40.985Z,58
2023-05-12T10:58:58.257Z,59
2023-05-12T11:00:15.457Z,57
2023-05-12T11:01:32.374Z,58
2023-05-12T11:02:49.856Z,58
2023-05-12T11:04:05.943Z,57
2023-05-12T11:05:23.102Z,57
2023-05-12T11:06:40.896Z,59
2023-05-12T11:07:57.163Z,57
2023-05-12T11:09:13.998Z,56
2023-05-12T11:10:31.304Z,58
2023-05-12T11:11:47.935Z,61
2023-05-12T11:13:04.872Z,59
2023-05-12T11:14:21.818Z,58
2023-05-12T11:15:38.874Z,58
2023-05-12T11:16:55.808Z,60
2023-05-12T11:18:12.996Z,64
2023-05-12T11:19:29.853Z,62
2023-05-12T11:20:46.842Z,56
2023-05-12T11:22:03.912Z,54
2023-05-12T11:23:20.841Z,55
2023-05-12T11:24:37.855Z,56
2023-05-12T11:25:54.913Z,57
2023-05-12T11:27:11.839Z,57
2023-05-12T11:28:28.914Z,57
2023-05-12T11:29:45.880Z,59
2023-05-12T11:31:02.348Z,62
2023-05-12T11:32:19.077Z,62
2023-05-12T11:33:35.277Z,62
2023-05-12T11:34:51.277Z,64
2023-05-12T11:36:12.856Z,66
2023-05-12T11:37:29.926Z,65
2023-05-12T11:38:46.860Z,63
2023-05-12T11:40:03.956Z,64
2023-05-12T11:41:20.874Z,64
2023-05-12T11:42:37.935Z,62
2023-05-12T11:43:54.870Z,60
2023-05-12T11:45:11.882Z,63
2023-05-12T11:46:28.902Z,60
2023-05-12T11:47:45.932Z,60
2023-05-12T11:49:03.931Z,60
2023-05-12T11:50:20.937Z,60
2023-05-12T11:51:37.879Z,62
2023-05-12T11:52:55.919Z,58
2023-05-12T11:54:12.897Z,56
2023-05-12T11:55:29.920Z,57
2023-05-12T11:56:46.893Z,54
2023-05-12T11:58:04.044Z,55
2023-05-12T11:59:20.922Z,55
2023-05-12T12:00:37.908Z,56
2023-05-12T12:01:54.957Z,54
2023-05-12T12:03:12.144Z,52
2023-05-12T12:04:28.954Z,55
2023-05-12T12:05:46.005Z,55
2023-05-12T12:07:02.327Z,59
2023-05-12T12:08:18.947Z,59
2023-05-12T12:09:35.940Z,57
2023-05-12T12:10:52.945Z,57
2023-05-12T12:12:09.918Z,60
2023-05-12T12:13:26.970Z,59
2023-05-12T12:14:44.952Z,56
2023-05-12T12:16:01.994Z,57
2023-05-12T12:17:18.937Z,57
2023-05-12T12:18:36.086Z,54
2023-05-12T12:19:53.133Z,49
2023-05-12T12:21:10.012Z,50
2023-05-12T12:22:26.970Z,49
2023-05-12T12:23:50.735Z,-1
2023-05-12T12:25:00.934Z,50
2023-05-12T12:26:17.968Z,50
2023-05-12T12:27:35.006Z,49
2023-05-12T12:28:51.966Z,49
2023-05-12T12:30:08.989Z,48
2023-05-12T12:31:26.024Z,48
2023-05-12T12:32:43.023Z,50
2023-05-12T12:33:59.954Z,55
2023-05-12T12:35:17.008Z,56
2023-05-12T12:36:34.001Z,56
2023-05-12T12:37:50.990Z,54
2023-05-12T12:39:08.044Z,56
2023-05-12T12:40:24.965Z,58
2023-05-12T12:41:42.007Z,58
2023-05-12T12:42:58.996Z,57
2023-05-12T12:44:16.001Z,55
2023-05-12T12:45:32.977Z,54
2023-05-12T12:46:50.016Z,55
2023-05-12T12:48:07.099Z,56
2023-05-12T12:49:23.993Z,54
2023-05-12T12:50:40.995Z,51
2023-05-12T12:51:58.083Z,49
2023-05-12T12:53:15.057Z,49
2023-05-12T12:54:32.053Z,48
2023-05-12T12:55:49.006Z,47
2023-05-12T12:57:06.007Z,46
2023-05-12T12:58:23.077Z,47
2023-05-12T12:59:40.028Z,47
2023-05-12T13:00:57.038Z,47
2023-05-12T13:02:14.076Z,49
2023-05-12T13:03:31.114Z,50
2023-05-12T13:04:48.017Z,50
2023-05-12T13:06:05.036Z,54
2023-05-12T13:07:22.063Z,54
2023-05-12T13:08:39.056Z,52
2023-05-12T13:09:56.044Z,56
2023-05-12T13:11:13.017Z,56
2023-05-12T13:12:30.034Z,59
2023-05-12T13:13:47.103Z,58
2023-05-12T13:15:04.185Z,58
2023-05-12T13:16:21.086Z,54
2023-05-12T13:17:38.110Z,52
2023-05-12T13:18:55.083Z,52
2023-05-12T13:20:12.098Z,52
2023-05-12T13:21:29.125Z,50
2023-05-12T13:22:46.087Z,-1
2023-05-12T13:24:03.093Z,50
2023-05-12T13:25:20.369Z,51
2023-05-12T13:26:37.070Z,49
2023-05-12T13:27:54.079Z,50
2023-05-12T13:29:11.086Z,51
2023-05-12T13:30:28.173Z,49
2023-05-12T13:31:45.102Z,50
2023-05-12T13:33:03.805Z,49
2023-05-12T13:34:19.127Z,49
2023-05-12T13:35:36.116Z,48
2023-05-12T13:36:53.113Z,49
2023-05-12T13:38:10.105Z,50
2023-05-12T13:39:27.075Z,48
2023-05-12T13:40:44.247Z,50
2023-05-12T13:42:01.153Z,49
2023-05-12T13:43:18.093Z,48
2023-05-12T13:44:35.125Z,47
2023-05-12T13:45:52.187Z,47
2023-05-12T13:47:09.300Z,46
2023-05-12T13:48:26.120Z,47
2023-05-12T13:49:43.209Z,48
2023-05-12T13:51:00.112Z,50
2023-05-12T13:52:17.122Z,50
2023-05-12T13:53:34.180Z,51
2023-05-12T13:54:51.325Z,50
2023-05-12T13:56:08.145Z,50
2023-05-12T13:57:25.106Z,51
2023-05-12T13:58:42.374Z,49
2023-05-12T13:59:59.146Z,49
2023-05-12T14:01:16.193Z,49
2023-05-12T14:02:33.176Z,48
2023-05-12T14:03:50.112Z,47
2023-05-12T14:05:07.240Z,48
2023-05-12T14:06:24.195Z,50
2023-05-12T14:07:41.112Z,50
2023-05-12T14:08:58.188Z,51
2023-05-12T14:10:15.161Z,52
2023-05-12T14:11:32.248Z,54
2023-05-12T14:12:49.225Z,58
2023-05-12T14:14:06.299Z,58
2023-05-12T14:15:32.809Z,57
2023-05-12T14:16:41.240Z,56
2023-05-12T14:17:58.171Z,54
2023-05-12T14:19:15.181Z,50
2023-05-12T14:20:32.194Z,50
2023-05-12T14:21:49.237Z,49
2023-05-12T14:23:06.442Z,49
2023-05-12T14:24:23.280Z,47
2023-05-12T14:25:40.172Z,46
2023-05-12T14:26:57.193Z,44
2023-05-12T14:28:14.329Z,44
2023-05-12T14:29:31.238Z,43
2023-05-12T14:30:48.226Z,43
2023-05-12T14:32:05.254Z,44
2023-05-12T14:33:22.237Z,45
2023-05-12T14:34:39.202Z,43
2023-05-12T14:36:06.329Z,43
2023-05-12T14:37:13.199Z,42
2023-05-12T14:38:30.197Z,43
2023-05-12T14:39:47.252Z,43
2023-05-12T14:41:04.277Z,44
2023-05-12T14:42:21.195Z,47
2023-05-12T14:43:38.192Z,47
2023-05-12T14:44:55.196Z,49
2023-05-12T14:46:12.326Z,48
2023-05-12T14:47:29.275Z,46
2023-05-12T14:48:46.212Z,46
2023-05-12T14:50:03.336Z,49
2023-05-12T14:51:20.214Z,49
2023-05-12T14:52:37.205Z,48
2023-05-12T14:53:54.209Z,48
2023-05-12T14:55:11.296Z,49
2023-05-12T14:56:28.251Z,48
2023-05-12T14:57:45.219Z,47
2023-05-12T14:59:02.232Z,47
2023-05-12T15:00:19.262Z,46
2023-05-12T15:01:36.271Z,47
2023-05-12T15:02:53.366Z,48
2023-05-12T15:04:10.256Z,48
2023-05-12T15:05:36.277Z,48
2023-05-12T15:06:44.266Z,46
2023-05-12T15:08:01.246Z,46
2023-05-12T15:09:18.226Z,44
2023-05-12T15:10:35.274Z,47
2023-05-12T15:11:52.250Z,47
2023-05-12T15:13:09.265Z,48
2023-05-12T15:14:26.294Z,49
2023-05-12T15:15:43.277Z,48
2023-05-12T15:17:00.299Z,48
2023-05-12T15:18:17.269Z,48
2023-05-12T15:19:34.272Z,49
2023-05-12T15:20:51.338Z,-1
2023-05-12T15:22:08.336Z,49
2023-05-12T15:23:25.308Z,49
2023-05-12T15:24:42.291Z,47
2023-05-12T15:26:01.350Z,46
2023-05-12T15:27:16.275Z,47
2023-05-12T15:28:33.303Z,44
2023-05-12T15:29:50.343Z,46
2023-05-12T15:31:07.308Z,46
2023-05-12T15:32:24.392Z,47
2023-05-12T15:33:41.293Z,47
2023-05-12T15:34:58.349Z,48
2023-05-12T15:36:15.309Z,48
2023-05-12T15:37:32.323Z,46
2023-05-12T15:38:49.664Z,46
2023-05-12T15:40:07.737Z,46
2023-05-12T15:41:24.472Z,46
2023-05-12T15:42:41.310Z,44
2023-05-12T15:43:58.312Z,44
2023-05-12T15:45:15.388Z,44
2023-05-12T15:46:32.444Z,43
2023-05-12T15:47:49.387Z,44
2023-05-12T15:49:06.336Z,44
2023-05-12T15:50:23.366Z,42
2023-05-12T15:51:40.336Z,42
2023-05-12T15:52:57.315Z,42
2023-05-12T15:54:14.341Z,42
2023-05-12T15:55:31.336Z,43
2023-05-12T15:56:48.463Z,43
2023-05-12T15:58:05.378Z,42
2023-05-12T15:59:22.348Z,42
2023-05-12T16:00:39.399Z,42
2023-05-12T16:01:56.594Z,42
2023-05-12T16:03:13.490Z,43
2023-05-12T16:04:30.397Z,43
2023-05-12T16:05:47.427Z,43
2023-05-12T16:07:04.327Z,41
2023-05-12T16:08:21.345Z,42
2023-05-12T16:09:38.367Z,41
2023-05-12T16:10:55.383Z,41
2023-05-12T16:12:12.416Z,40
2023-05-12T16:13:29.358Z,40
2023-05-12T16:14:46.375Z,41
2023-05-12T16:16:03.452Z,41
2023-05-12T16:17:20.344Z,42
2023-05-12T16:18:37.422Z,42
2023-05-12T16:19:54.355Z,43
2023-05-12T16:21:11.392Z,43
2023-05-12T16:22:28.393Z,43
2023-05-12T16:23:45.359Z,43
2023-05-12T16:25:02.366Z,43
2023-05-12T16:26:19.430Z,43
2023-05-12T16:27:36.663Z,42
2023-05-12T16:28:53.402Z,43
2023-05-12T16:30:10.433Z,42
2023-05-12T16:31:27.390Z,43
2023-05-12T16:32:44.489Z,43
2023-05-12T16:34:01.425Z,42
2023-05-12T16:35:18.499Z,42
2023-05-12T16:36:35.382Z,41
2023-05-12T16:37:52.431Z,43
2023-05-12T16:39:09.399Z,43
2023-05-12T16:40:26.490Z,42
2023-05-12T16:41:43.385Z,42
2023-05-12T16:43:00.405Z,43
2023-05-12T16:44:17.486Z,42
2023-05-12T16:45:34.403Z,42
2023-05-12T16:46:51.899Z,42
2023-05-12T16:48:09.467Z,42
2023-05-12T16:49:26.656Z,42
2023-05-12T16:50:43.457Z,41
2023-05-12T16:52:00.432Z,41
2023-05-12T16:53:17.435Z,41
2023-05-12T16:54:34.412Z,41
2023-05-12T16:55:51.444Z,41
2023-05-12T16:57:08.405Z,41
2023-05-12T16:58:25.513Z,41
2023-05-12T16:59:42.433Z,41
2023-05-12T17:00:59.432Z,41
2023-05-12T17:02:16.474Z,41
2023-05-12T17:03:33.596Z,41
2023-05-12T17:04:50.419Z,40
2023-05-12T17:06:07.474Z,41
2023-05-12T17:07:24.444Z,40
2023-05-12T17:08:41.467Z,40
2023-05-12T17:09:58.506Z,40
2023-05-12T17:11:15.447Z,39
2023-05-12T17:12:32.456Z,41
2023-05-12T17:13:49.493Z,41
2023-05-12T17:15:08.291Z,41
2023-05-12T17:16:23.506Z,41
2023-05-12T17:17:40.476Z,40
2023-05-12T17:20:15.514Z,40
2023-05-12T17:21:32.472Z,40
2023-05-12T17:22:49.511Z,40
2023-05-12T17:24:06.463Z,40
2023-05-12T17:25:23.776Z,40
2023-05-12T17:26:40.467Z,41
2023-05-12T17:27:57.486Z,40
2023-05-12T17:29:14.522Z,39
2023-05-12T17:30:31.530Z,41
2023-05-12T17:31:48.571Z,39
2023-05-12T17:33:05.497Z,39
2023-05-12T17:34:22.498Z,39
2023-05-12T17:35:39.478Z,40
2023-05-12T17:36:56.492Z,40
2023-05-12T17:38:13.482Z,37
2023-05-12T17:39:30.531Z,37
2023-05-12T17:40:47.502Z,38
2023-05-12T17:42:04.556Z,36
2023-05-12T17:43:21.643Z,37
2023-05-12T17:44:38.565Z,36
2023-05-12T17:45:55.573Z,36
2023-05-12T17:47:13.871Z,37
2023-05-12T17:48:29.549Z,37
2023-05-12T17:49:46.533Z,35
2023-05-12T17:51:04.569Z,36
2023-05-12T17:52:21.648Z,36
2023-05-12T17:53:38.510Z,36
2023-05-12T17:54:55.603Z,36
2023-05-12T17:56:12.519Z,36
2023-05-12T17:57:29.913Z,35
2023-05-12T17:58:46.775Z,35
2023-05-12T18:00:03.640Z,35
2023-05-12T18:01:20.567Z,34
2023-05-12T18:02:37.721Z,34
2023-05-12T18:03:54.536Z,34
2023-05-12T18:05:11.654Z,34
2023-05-12T18:06:28.537Z,34
2023-05-12T18:07:45.576Z,34
2023-05-12T18:09:02.723Z,34
2023-05-12T18:10:20.757Z,33
2023-05-12T18:11:37.579Z,33
2023-05-12T18:12:55.442Z,33
2023-05-12T18:14:11.599Z,35
2023-05-12T18:15:28.654Z,33
2023-05-12T18:16:45.560Z,33
2023-05-12T18:18:02.768Z,33
2023-05-12T18:19:19.613Z,33
2023-05-12T18:20:36.710Z,33